sensor_id;sensor_type;location;lat;lon;timestamp;pressure;altitude;pressure_sealevel;temperature;humidity
31595;BME280;18200;48.726;8.892;2022-08-18T00:01:04;96522.94;;;30.13;43.00
31595;BME280;18200;48.726;8.892;2022-08-18T00:05:04;96515.06;;;30.06;43.18
31595;BME280;18200;48.726;8.892;2022-08-18T00:09:06;96520.25;;;29.99;43.55
31595;BME280;18200;48.726;8.892;2022-08-18T00:13:07;96521.50;;;30.23;43.00
31595;BME280;18200;48.726;8.892;2022-08-18T00:17:08;96517.34;;;30.33;42.84
31595;BME280;18200;48.726;8.892;2022-08-18T00:21:08;96505.09;;;30.20;42.61
31595;BME280;18200;48.726;8.892;2022-08-18T00:25:11;96501.03;;;30.15;43.15
31595;BME280;18200;48.726;8.892;2022-08-18T00:29:11;96495.00;;;30.17;43.50
31595;BME280;18200;48.726;8.892;2022-08-18T00:33:12;96497.00;;;30.42;42.33
31595;BME280;18200;48.726;8.892;2022-08-18T00:37:13;96492.91;;;30.37;42.80
31595;BME280;18200;48.726;8.892;2022-08-18T00:41:13;96483.69;;;30.20;43.30
31595;BME280;18200;48.726;8.892;2022-08-18T00:45:17;96482.94;;;30.20;43.27
31595;BME280;18200;48.726;8.892;2022-08-18T00:49:19;96475.00;;;30.07;43.52
31595;BME280;18200;48.726;8.892;2022-08-18T00:53:27;96477.31;;;29.83;44.68
31595;BME280;18200;48.726;8.892;2022-08-18T00:57:29;96459.94;;;30.14;43.86
31595;BME280;18200;48.726;8.892;2022-08-18T01:01:31;96453.47;;;29.71;44.60
31595;BME280;18200;48.726;8.892;2022-08-18T01:05:36;96448.53;;;29.55;46.20
31595;BME280;18200;48.726;8.892;2022-08-18T01:09:40;96444.09;;;29.63;44.88
31595;BME280;18200;48.726;8.892;2022-08-18T01:13:41;96461.22;;;29.41;45.48
31595;BME280;18200;48.726;8.892;2022-08-18T01:17:42;96460.25;;;29.44;45.89
31595;BME280;18200;48.726;8.892;2022-08-18T01:22:07;96460.53;;;29.92;44.51
31595;BME280;18200;48.726;8.892;2022-08-18T01:26:10;96456.75;;;29.95;43.89
31595;BME280;18200;48.726;8.892;2022-08-18T01:30:15;96458.84;;;30.00;44.23
31595;BME280;18200;48.726;8.892;2022-08-18T01:34:16;96456.75;;;29.95;43.49
31595;BME280;18200;48.726;8.892;2022-08-18T01:38:21;96445.69;;;29.95;44.42
31595;BME280;18200;48.726;8.892;2022-08-18T01:42:21;96442.88;;;29.44;44.70
31595;BME280;18200;48.726;8.892;2022-08-18T01:46:22;96428.25;;;29.89;44.42
31595;BME280;18200;48.726;8.892;2022-08-18T01:50:22;96428.13;;;30.04;43.86
31595;BME280;18200;48.726;8.892;2022-08-18T01:54:23;96426.13;;;29.53;45.02
31595;BME280;18200;48.726;8.892;2022-08-18T01:58:23;96425.72;;;29.40;45.40
31595;BME280;18200;48.726;8.892;2022-08-18T02:02:29;96429.38;;;29.51;45.65
31595;BME280;18200;48.726;8.892;2022-08-18T02:06:32;96426.91;;;29.79;45.08
31595;BME280;18200;48.726;8.892;2022-08-18T02:10:33;96424.69;;;29.63;45.13
31595;BME280;18200;48.726;8.892;2022-08-18T02:14:34;96417.44;;;29.65;45.04
31595;BME280;18200;48.726;8.892;2022-08-18T02:18:36;96420.84;;;29.75;45.11
31595;BME280;18200;48.726;8.892;2022-08-18T02:22:37;96424.59;;;29.52;45.07
31595;BME280;18200;48.726;8.892;2022-08-18T02:26:37;96428.44;;;29.14;45.91
31595;BME280;18200;48.726;8.892;2022-08-18T02:30:38;96423.81;;;29.26;45.73
31595;BME280;18200;48.726;8.892;2022-08-18T02:34:38;96418.97;;;29.41;45.05
31595;BME280;18200;48.726;8.892;2022-08-18T02:38:41;96427.81;;;29.25;45.24
31595;BME280;18200;48.726;8.892;2022-08-18T02:42:43;96430.09;;;28.16;48.84
31595;BME280;18200;48.726;8.892;2022-08-18T02:46:44;96431.00;;;28.77;47.50
31595;BME280;18200;48.726;8.892;2022-08-18T02:50:45;96422.44;;;29.15;46.42
31595;BME280;18200;48.726;8.892;2022-08-18T02:54:48;96412.22;;;29.22;46.69
31595;BME280;18200;48.726;8.892;2022-08-18T02:58:54;96405.44;;;28.62;47.48
31595;BME280;18200;48.726;8.892;2022-08-18T03:02:54;96398.81;;;28.25;48.37
31595;BME280;18200;48.726;8.892;2022-08-18T03:06:56;96388.28;;;28.78;47.47
31595;BME280;18200;48.726;8.892;2022-08-18T03:10:57;96384.97;;;29.40;45.94
31595;BME280;18200;48.726;8.892;2022-08-18T03:14:58;96381.81;;;29.53;46.06
31595;BME280;18200;48.726;8.892;2022-08-18T03:19:01;96366.78;;;29.34;45.56
31595;BME280;18200;48.726;8.892;2022-08-18T03:23:03;96373.19;;;28.99;46.14
31595;BME280;18200;48.726;8.892;2022-08-18T03:27:05;96363.66;;;29.00;45.88
31595;BME280;18200;48.726;8.892;2022-08-18T03:31:06;96362.44;;;28.81;47.26
31595;BME280;18200;48.726;8.892;2022-08-18T03:35:07;96370.09;;;28.17;49.08
31595;BME280;18200;48.726;8.892;2022-08-18T03:39:10;96369.06;;;28.89;46.68
31595;BME280;18200;48.726;8.892;2022-08-18T03:43:10;96378.16;;;28.95;46.07
31595;BME280;18200;48.726;8.892;2022-08-18T03:47:11;96370.72;;;28.61;47.09
31595;BME280;18200;48.726;8.892;2022-08-18T03:51:18;96379.09;;;28.52;46.71
31595;BME280;18200;48.726;8.892;2022-08-18T03:55:19;96372.78;;;29.06;46.01
31595;BME280;18200;48.726;8.892;2022-08-18T03:59:21;96380.56;;;29.08;45.64
31595;BME280;18200;48.726;8.892;2022-08-18T04:03:22;96373.59;;;28.92;46.25
31595;BME280;18200;48.726;8.892;2022-08-18T04:07:22;96365.84;;;29.17;45.26
31595;BME280;18200;48.726;8.892;2022-08-18T04:11:23;96376.22;;;29.01;46.36
31595;BME280;18200;48.726;8.892;2022-08-18T04:15:24;96372.06;;;29.11;46.05
31595;BME280;18200;48.726;8.892;2022-08-18T04:19:25;96363.06;;;29.37;45.55
31595;BME280;18200;48.726;8.892;2022-08-18T04:23:25;96369.56;;;29.34;44.64
31595;BME280;18200;48.726;8.892;2022-08-18T04:27:27;96373.25;;;29.51;44.75
31595;BME280;18200;48.726;8.892;2022-08-18T04:31:29;96376.50;;;29.49;45.15
31595;BME280;18200;48.726;8.892;2022-08-18T04:35:30;96384.34;;;29.31;44.77
31595;BME280;18200;48.726;8.892;2022-08-18T04:39:30;96393.44;;;29.31;45.04
31595;BME280;18200;48.726;8.892;2022-08-18T04:43:31;96398.19;;;29.31;45.38
31595;BME280;18200;48.726;8.892;2022-08-18T04:47:32;96397.19;;;29.08;46.15
31595;BME280;18200;48.726;8.892;2022-08-18T04:51:32;96405.53;;;29.34;46.05
31595;BME280;18200;48.726;8.892;2022-08-18T04:55:33;96407.34;;;29.37;45.80
31595;BME280;18200;48.726;8.892;2022-08-18T04:59:34;96415.03;;;29.53;45.22
31595;BME280;18200;48.726;8.892;2022-08-18T05:03:34;96425.88;;;28.90;46.11
31595;BME280;18200;48.726;8.892;2022-08-18T05:07:35;96429.25;;;28.60;47.31
31595;BME280;18200;48.726;8.892;2022-08-18T05:11:37;96421.00;;;29.46;45.79
31595;BME280;18200;48.726;8.892;2022-08-18T05:15:37;96425.66;;;29.80;45.06
31595;BME280;18200;48.726;8.892;2022-08-18T05:19:39;96423.25;;;29.93;44.64
31595;BME280;18200;48.726;8.892;2022-08-18T05:23:42;96420.13;;;30.11;43.37
31595;BME280;18200;48.726;8.892;2022-08-18T05:27:43;96417.88;;;30.15;43.07
31595;BME280;18200;48.726;8.892;2022-08-18T05:31:44;96416.41;;;30.20;43.54
31595;BME280;18200;48.726;8.892;2022-08-18T05:35:48;96410.09;;;30.19;43.89
31595;BME280;18200;48.726;8.892;2022-08-18T05:40:00;96392.19;;;30.15;43.39
31595;BME280;18200;48.726;8.892;2022-08-18T05:44:01;96388.91;;;30.16;43.61
31595;BME280;18200;48.726;8.892;2022-08-18T05:48:02;96378.06;;;30.49;43.79
31595;BME280;18200;48.726;8.892;2022-08-18T05:52:06;96384.81;;;30.06;44.64
31595;BME280;18200;48.726;8.892;2022-08-18T05:56:09;96374.47;;;30.43;44.37
31595;BME280;18200;48.726;8.892;2022-08-18T06:00:30;96379.69;;;30.73;42.07
31595;BME280;18200;48.726;8.892;2022-08-18T06:04:53;96390.31;;;30.01;44.41
31595;BME280;18200;48.726;8.892;2022-08-18T06:13:13;96389.03;;;30.75;42.73
31595;BME280;18200;48.726;8.892;2022-08-18T06:17:40;96392.78;;;30.67;42.49
31595;BME280;18200;48.726;8.892;2022-08-18T06:21:52;96391.94;;;30.18;43.93
31595;BME280;18200;48.726;8.892;2022-08-18T06:30:18;96431.91;;;29.75;45.36
31595;BME280;18200;48.726;8.892;2022-08-18T06:34:30;96426.91;;;30.41;44.35
31595;BME280;18200;48.726;8.892;2022-08-18T06:38:51;96413.69;;;30.67;43.18
31595;BME280;18200;48.726;8.892;2022-08-18T06:42:54;96412.34;;;30.94;43.44
31595;BME280;18200;48.726;8.892;2022-08-18T06:47:26;96407.53;;;30.95;43.05
31595;BME280;18200;48.726;8.892;2022-08-18T06:51:31;96404.38;;;31.24;42.13
31595;BME280;18200;48.726;8.892;2022-08-18T06:55:33;96408.41;;;31.17;42.16
31595;BME280;18200;48.726;8.892;2022-08-18T06:59:34;96418.78;;;31.33;41.88
31595;BME280;18200;48.726;8.892;2022-08-18T07:07:40;96440.56;;;31.41;42.02
31595;BME280;18200;48.726;8.892;2022-08-18T07:11:57;96444.34;;;31.43;42.27
31595;BME280;18200;48.726;8.892;2022-08-18T07:16:22;96461.16;;;31.23;42.12
31595;BME280;18200;48.726;8.892;2022-08-18T07:20:24;96463.53;;;30.88;43.27
31595;BME280;18200;48.726;8.892;2022-08-18T07:24:29;96470.78;;;31.33;42.67
31595;BME280;18200;48.726;8.892;2022-08-18T07:32:43;96475.69;;;30.96;43.21
31595;BME280;18200;48.726;8.892;2022-08-18T07:36:49;96466.81;;;31.45;41.90
31595;BME280;18200;48.726;8.892;2022-08-18T07:40:56;96461.31;;;31.62;41.22
31595;BME280;18200;48.726;8.892;2022-08-18T07:45:08;96464.84;;;31.62;41.32
31595;BME280;18200;48.726;8.892;2022-08-18T07:49:20;96476.53;;;31.13;42.37
31595;BME280;18200;48.726;8.892;2022-08-18T07:53:35;96478.22;;;30.99;42.96
31595;BME280;18200;48.726;8.892;2022-08-18T07:57:56;96474.91;;;31.43;41.55
31595;BME280;18200;48.726;8.892;2022-08-18T08:06:27;96429.13;;;30.80;42.74
31595;BME280;18200;48.726;8.892;2022-08-18T08:10:58;96426.75;;;31.04;42.46
31595;BME280;18200;48.726;8.892;2022-08-18T08:15:27;96449.53;;;30.71;43.12
31595;BME280;18200;48.726;8.892;2022-08-18T08:32:12;96460.16;;;32.07;40.48
31595;BME280;18200;48.726;8.892;2022-08-18T08:36:22;96455.28;;;31.74;40.90
31595;BME280;18200;48.726;8.892;2022-08-18T08:40:27;96460.88;;;32.07;40.67
31595;BME280;18200;48.726;8.892;2022-08-18T08:44:38;96458.50;;;32.95;38.83
31595;BME280;18200;48.726;8.892;2022-08-18T08:48:45;96457.63;;;32.53;39.60
31595;BME280;18200;48.726;8.892;2022-08-18T08:52:58;96442.72;;;32.18;40.37
31595;BME280;18200;48.726;8.892;2022-08-18T08:57:00;96462.22;;;30.83;43.06
31595;BME280;18200;48.726;8.892;2022-08-18T09:01:01;96450.00;;;31.12;42.13
31595;BME280;18200;48.726;8.892;2022-08-18T09:05:16;96437.41;;;32.20;40.32
31595;BME280;18200;48.726;8.892;2022-08-18T09:09:44;96410.03;;;31.52;41.63
31595;BME280;18200;48.726;8.892;2022-08-18T09:14:06;96386.50;;;31.36;42.60
31595;BME280;18200;48.726;8.892;2022-08-18T09:22:50;96383.50;;;30.75;42.96
31595;BME280;18200;48.726;8.892;2022-08-18T09:43:39;96422.84;;;33.04;39.33
31595;BME280;18200;48.726;8.892;2022-08-18T09:51:54;96435.09;;;32.62;39.38
31595;BME280;18200;48.726;8.892;2022-08-18T09:55:56;96450.00;;;34.26;35.89
31595;BME280;18200;48.726;8.892;2022-08-18T10:09:00;96431.09;;;33.26;38.73
31595;BME280;18200;48.726;8.892;2022-08-18T10:13:28;96426.50;;;32.55;39.71
31595;BME280;18200;48.726;8.892;2022-08-18T10:25:55;96396.59;;;32.72;40.53
31595;BME280;18200;48.726;8.892;2022-08-18T10:29:56;96383.31;;;31.98;41.55
31595;BME280;18200;48.726;8.892;2022-08-18T10:38:23;96361.81;;;31.82;41.57
31595;BME280;18200;48.726;8.892;2022-08-18T10:42:32;96365.63;;;33.03;39.41
31595;BME280;18200;48.726;8.892;2022-08-18T10:46:40;96383.47;;;32.61;40.28
31595;BME280;18200;48.726;8.892;2022-08-18T11:03:26;96344.81;;;32.58;40.60
31595;BME280;18200;48.726;8.892;2022-08-18T11:07:31;96357.69;;;31.28;43.42
31595;BME280;18200;48.726;8.892;2022-08-18T11:11:40;96375.56;;;31.05;43.34
31595;BME280;18200;48.726;8.892;2022-08-18T11:19:57;96356.88;;;31.05;42.65
31595;BME280;18200;48.726;8.892;2022-08-18T11:28:14;96369.38;;;31.60;41.49
31595;BME280;18200;48.726;8.892;2022-08-18T11:36:28;96340.84;;;31.59;41.61
31595;BME280;18200;48.726;8.892;2022-08-18T11:40:34;96339.78;;;32.34;39.85
31595;BME280;18200;48.726;8.892;2022-08-18T11:44:37;96338.06;;;32.14;39.87
31595;BME280;18200;48.726;8.892;2022-08-18T11:48:48;96335.94;;;32.59;39.20
31595;BME280;18200;48.726;8.892;2022-08-18T11:52:50;96339.06;;;32.97;38.04
31595;BME280;18200;48.726;8.892;2022-08-18T11:56:51;96333.25;;;31.93;39.60
31595;BME280;18200;48.726;8.892;2022-08-18T12:00:55;96328.41;;;32.27;38.72
31595;BME280;18200;48.726;8.892;2022-08-18T12:04:59;96304.59;;;32.48;38.14
31595;BME280;18200;48.726;8.892;2022-08-18T12:09:05;96307.09;;;32.57;39.17
31595;BME280;18200;48.726;8.892;2022-08-18T12:13:20;96306.50;;;31.95;38.90
31595;BME280;18200;48.726;8.892;2022-08-18T12:17:21;96312.13;;;33.21;36.71
31595;BME280;18200;48.726;8.892;2022-08-18T12:21:22;96322.41;;;31.89;38.94
31595;BME280;18200;48.726;8.892;2022-08-18T12:25:22;96318.53;;;32.31;38.42
31595;BME280;18200;48.726;8.892;2022-08-18T12:29:24;96326.69;;;33.74;36.31
31595;BME280;18200;48.726;8.892;2022-08-18T12:33:25;96315.31;;;35.48;33.02
31595;BME280;18200;48.726;8.892;2022-08-18T12:37:27;96301.34;;;34.07;35.15
31595;BME280;18200;48.726;8.892;2022-08-18T12:41:28;96302.22;;;33.91;35.32
31595;BME280;18200;48.726;8.892;2022-08-18T12:45:28;96293.78;;;32.28;38.15
31595;BME280;18200;48.726;8.892;2022-08-18T12:49:30;96292.19;;;33.47;35.37
31595;BME280;18200;48.726;8.892;2022-08-18T12:53:30;96288.66;;;34.06;34.30
31595;BME280;18200;48.726;8.892;2022-08-18T12:57:30;96288.25;;;32.85;36.01
31595;BME280;18200;48.726;8.892;2022-08-18T13:01:32;96274.25;;;33.42;34.31
31595;BME280;18200;48.726;8.892;2022-08-18T13:05:34;96270.72;;;34.68;32.29
31595;BME280;18200;48.726;8.892;2022-08-18T13:09:35;96256.03;;;34.01;34.57
31595;BME280;18200;48.726;8.892;2022-08-18T13:13:37;96241.91;;;34.36;32.41
31595;BME280;18200;48.726;8.892;2022-08-18T13:17:38;96240.19;;;36.03;30.48
31595;BME280;18200;48.726;8.892;2022-08-18T13:21:39;96223.16;;;33.34;33.60
31595;BME280;18200;48.726;8.892;2022-08-18T13:25:41;96222.25;;;33.21;33.37
31595;BME280;18200;48.726;8.892;2022-08-18T13:29:42;96229.22;;;34.16;32.52
31595;BME280;18200;48.726;8.892;2022-08-18T13:33:42;96224.31;;;35.02;30.63
31595;BME280;18200;48.726;8.892;2022-08-18T13:37:42;96225.19;;;34.36;31.90
31595;BME280;18200;48.726;8.892;2022-08-18T13:41:44;96229.09;;;35.21;30.57
31595;BME280;18200;48.726;8.892;2022-08-18T13:45:45;96229.31;;;35.23;31.53
31595;BME280;18200;48.726;8.892;2022-08-18T13:49:49;96231.81;;;33.25;33.89
31595;BME280;18200;48.726;8.892;2022-08-18T13:53:50;96234.69;;;33.49;33.17
31595;BME280;18200;48.726;8.892;2022-08-18T13:57:51;96238.56;;;36.33;29.52
31595;BME280;18200;48.726;8.892;2022-08-18T14:01:51;96229.09;;;34.46;32.79
31595;BME280;18200;48.726;8.892;2022-08-18T14:05:52;96226.28;;;34.09;33.10
31595;BME280;18200;48.726;8.892;2022-08-18T14:09:53;96232.38;;;35.38;31.57
31595;BME280;18200;48.726;8.892;2022-08-18T14:13:54;96241.66;;;32.91;33.79
31595;BME280;18200;48.726;8.892;2022-08-18T14:17:55;96248.53;;;34.57;30.71
31595;BME280;18200;48.726;8.892;2022-08-18T14:21:55;96253.97;;;34.68;31.20
31595;BME280;18200;48.726;8.892;2022-08-18T14:26:14;96244.38;;;34.82;31.83
31595;BME280;18200;48.726;8.892;2022-08-18T14:30:35;96240.16;;;34.57;31.50
31595;BME280;18200;48.726;8.892;2022-08-18T14:34:35;96234.63;;;34.33;32.60
31595;BME280;18200;48.726;8.892;2022-08-18T14:38:36;96241.16;;;34.35;32.23
31595;BME280;18200;48.726;8.892;2022-08-18T14:42:36;96245.06;;;34.27;32.31
31595;BME280;18200;48.726;8.892;2022-08-18T14:46:38;96241.66;;;34.95;31.40
31595;BME280;18200;48.726;8.892;2022-08-18T14:50:40;96249.06;;;35.12;31.32
31595;BME280;18200;48.726;8.892;2022-08-18T14:54:41;96241.31;;;35.81;30.46
31595;BME280;18200;48.726;8.892;2022-08-18T14:58:42;96246.91;;;34.43;32.15
31595;BME280;18200;48.726;8.892;2022-08-18T15:02:43;96248.44;;;35.19;30.20
31595;BME280;18200;48.726;8.892;2022-08-18T15:06:44;96251.69;;;35.23;30.78
31595;BME280;18200;48.726;8.892;2022-08-18T15:10:45;96248.22;;;35.17;30.73
31595;BME280;18200;48.726;8.892;2022-08-18T15:14:46;96248.88;;;36.78;29.22
31595;BME280;18200;48.726;8.892;2022-08-18T15:18:47;96246.94;;;35.94;31.42
31595;BME280;18200;48.726;8.892;2022-08-18T15:22:48;96250.13;;;35.72;31.99
31595;BME280;18200;48.726;8.892;2022-08-18T15:27:07;96255.41;;;34.93;32.49
31595;BME280;18200;48.726;8.892;2022-08-18T15:31:07;96249.69;;;35.04;32.44
31595;BME280;18200;48.726;8.892;2022-08-18T15:35:08;96247.09;;;34.51;33.54
31595;BME280;18200;48.726;8.892;2022-08-18T15:39:09;96245.06;;;34.27;33.67
31595;BME280;18200;48.726;8.892;2022-08-18T15:43:09;96242.44;;;34.34;33.59
31595;BME280;18200;48.726;8.892;2022-08-18T15:47:10;96246.19;;;34.98;32.72
31595;BME280;18200;48.726;8.892;2022-08-18T15:51:10;96245.38;;;35.03;31.92
31595;BME280;18200;48.726;8.892;2022-08-18T15:55:10;96233.84;;;35.26;31.62
31595;BME280;18200;48.726;8.892;2022-08-18T15:59:11;96230.63;;;35.22;32.71
31595;BME280;18200;48.726;8.892;2022-08-18T16:03:12;96226.53;;;35.23;32.12
31595;BME280;18200;48.726;8.892;2022-08-18T16:07:16;96215.69;;;35.19;32.74
31595;BME280;18200;48.726;8.892;2022-08-18T16:11:16;96230.66;;;35.03;32.49
31595;BME280;18200;48.726;8.892;2022-08-18T16:15:22;96221.72;;;34.49;33.60
31595;BME280;18200;48.726;8.892;2022-08-18T16:19:24;96227.47;;;33.00;36.75
31595;BME280;18200;48.726;8.892;2022-08-18T16:23:24;96230.44;;;31.87;39.00
31595;BME280;18200;48.726;8.892;2022-08-18T16:27:25;96237.47;;;33.14;36.62
31595;BME280;18200;48.726;8.892;2022-08-18T16:31:30;96232.41;;;32.14;38.91
31595;BME280;18200;48.726;8.892;2022-08-18T16:35:31;96245.38;;;31.46;40.57
31595;BME280;18200;48.726;8.892;2022-08-18T16:39:32;96250.38;;;31.91;39.04
31595;BME280;18200;48.726;8.892;2022-08-18T16:43:34;96261.94;;;30.79;40.81
31595;BME280;18200;48.726;8.892;2022-08-18T16:47:35;96258.75;;;31.36;40.12
31595;BME280;18200;48.726;8.892;2022-08-18T16:51:39;96254.66;;;30.93;41.17
31595;BME280;18200;48.726;8.892;2022-08-18T16:55:42;96255.72;;;31.67;39.90
31595;BME280;18200;48.726;8.892;2022-08-18T16:59:42;96260.78;;;31.52;40.36
31595;BME280;18200;48.726;8.892;2022-08-18T17:04:24;96251.56;;;32.35;39.47
31595;BME280;18200;48.726;8.892;2022-08-18T17:08:25;96263.84;;;31.43;41.71
31595;BME280;18200;48.726;8.892;2022-08-18T17:12:27;96257.47;;;31.87;41.49
31595;BME280;18200;48.726;8.892;2022-08-18T17:16:28;96250.13;;;31.01;43.92
31595;BME280;18200;48.726;8.892;2022-08-18T17:20:33;96248.78;;;32.29;41.23
31595;BME280;18200;48.726;8.892;2022-08-18T17:24:34;96241.19;;;32.30;41.45
31595;BME280;18200;48.726;8.892;2022-08-18T17:28:50;96242.13;;;31.58;43.12
31595;BME280;18200;48.726;8.892;2022-08-18T17:33:09;96235.50;;;32.00;42.09
31595;BME280;18200;48.726;8.892;2022-08-18T17:37:14;96239.19;;;32.25;41.50
31595;BME280;18200;48.726;8.892;2022-08-18T17:41:18;96256.19;;;31.93;42.22
31595;BME280;18200;48.726;8.892;2022-08-18T17:45:20;96247.63;;;32.02;42.27
31595;BME280;18200;48.726;8.892;2022-08-18T17:49:28;96250.69;;;31.60;43.00
31595;BME280;18200;48.726;8.892;2022-08-18T17:53:47;96254.16;;;31.88;42.50
31595;BME280;18200;48.726;8.892;2022-08-18T18:02:42;96248.81;;;32.24;41.89
31595;BME280;18200;48.726;8.892;2022-08-18T18:06:44;96251.69;;;31.79;42.39
31595;BME280;18200;48.726;8.892;2022-08-18T18:10:47;96262.56;;;31.61;43.17
31595;BME280;18200;48.726;8.892;2022-08-18T18:14:48;96261.25;;;31.39;43.54
31595;BME280;18200;48.726;8.892;2022-08-18T18:19:00;96261.31;;;30.42;45.39
31595;BME280;18200;48.726;8.892;2022-08-18T18:23:23;96251.94;;;31.31;43.15
31595;BME280;18200;48.726;8.892;2022-08-18T18:27:37;96265.31;;;31.22;42.90
31595;BME280;18200;48.726;8.892;2022-08-18T18:31:45;96275.94;;;31.40;42.60
31595;BME280;18200;48.726;8.892;2022-08-18T18:39:56;96278.41;;;32.10;41.27
31595;BME280;18200;48.726;8.892;2022-08-18T18:44:07;96289.53;;;32.16;41.06
31595;BME280;18200;48.726;8.892;2022-08-18T18:48:13;96290.53;;;31.90;41.67
31595;BME280;18200;48.726;8.892;2022-08-18T18:52:29;96292.56;;;31.07;42.80
31595;BME280;18200;48.726;8.892;2022-08-18T18:57:02;96290.59;;;31.68;41.47
31595;BME280;18200;48.726;8.892;2022-08-18T19:01:24;96292.59;;;31.95;41.22
31595;BME280;18200;48.726;8.892;2022-08-18T19:05:42;96297.09;;;32.09;40.22
31595;BME280;18200;48.726;8.892;2022-08-18T19:14:05;96300.97;;;32.75;38.95
31595;BME280;18200;48.726;8.892;2022-08-18T19:18:26;96292.00;;;32.25;39.44
31595;BME280;18200;48.726;8.892;2022-08-18T19:22:41;96305.44;;;32.15;39.64
31595;BME280;18200;48.726;8.892;2022-08-18T19:26:48;96300.44;;;31.64;40.28
31595;BME280;18200;48.726;8.892;2022-08-18T19:30:51;96296.63;;;31.83;40.14
31595;BME280;18200;48.726;8.892;2022-08-18T19:34:52;96303.44;;;31.44;41.02
31595;BME280;18200;48.726;8.892;2022-08-18T19:43:36;96300.38;;;32.30;38.83
31595;BME280;18200;48.726;8.892;2022-08-18T19:47:52;96307.41;;;32.31;38.92
31595;BME280;18200;48.726;8.892;2022-08-18T19:52:05;96316.56;;;32.09;39.19
31595;BME280;18200;48.726;8.892;2022-08-18T19:56:19;96319.81;;;32.36;38.57
31595;BME280;18200;48.726;8.892;2022-08-18T20:00:39;96321.91;;;31.74;39.74
31595;BME280;18200;48.726;8.892;2022-08-18T20:09:38;96326.97;;;31.81;39.64
31595;BME280;18200;48.726;8.892;2022-08-18T20:13:44;96321.84;;;31.30;40.62
31595;BME280;18200;48.726;8.892;2022-08-18T20:18:05;96317.06;;;31.36;40.59
31595;BME280;18200;48.726;8.892;2022-08-18T20:35:19;96349.19;;;31.70;40.14
31595;BME280;18200;48.726;8.892;2022-08-18T20:39:43;96349.44;;;31.78;39.99
31595;BME280;18200;48.726;8.892;2022-08-18T20:43:46;96336.66;;;30.94;41.96
31595;BME280;18200;48.726;8.892;2022-08-18T20:49:05;96331.75;;;30.67;41.87
31595;BME280;18200;48.726;8.892;2022-08-18T20:56:47;96326.88;;;31.15;40.62
31595;BME280;18200;48.726;8.892;2022-08-18T21:00:54;96333.50;;;31.51;40.39
31595;BME280;18200;48.726;8.892;2022-08-18T21:04:57;96325.66;;;32.10;39.33
31595;BME280;18200;48.726;8.892;2022-08-18T21:08:59;96328.41;;;31.27;40.97
31595;BME280;18200;48.726;8.892;2022-08-18T21:13:02;96332.00;;;30.26;42.67
31595;BME280;18200;48.726;8.892;2022-08-18T21:17:12;96329.34;;;30.91;41.14
31595;BME280;18200;48.726;8.892;2022-08-18T21:21:19;96342.09;;;30.66;41.71
31595;BME280;18200;48.726;8.892;2022-08-18T21:25:22;96349.09;;;31.15;40.48
31595;BME280;18200;48.726;8.892;2022-08-18T21:29:23;96344.03;;;31.19;40.47
31595;BME280;18200;48.726;8.892;2022-08-18T21:33:24;96359.78;;;31.66;39.39
31595;BME280;18200;48.726;8.892;2022-08-18T21:37:24;96367.38;;;31.82;39.09
31595;BME280;18200;48.726;8.892;2022-08-18T21:41:26;96361.72;;;31.27;39.81
31595;BME280;18200;48.726;8.892;2022-08-18T21:45:40;96351.22;;;30.83;41.20
31595;BME280;18200;48.726;8.892;2022-08-18T21:54:07;96379.94;;;31.39;39.81
31595;BME280;18200;48.726;8.892;2022-08-18T22:02:19;96382.09;;;30.48;41.10
31595;BME280;18200;48.726;8.892;2022-08-18T22:06:39;96372.56;;;30.60;40.93
31595;BME280;18200;48.726;8.892;2022-08-18T22:10:40;96369.56;;;30.22;41.93
31595;BME280;18200;48.726;8.892;2022-08-18T22:15:09;96375.19;;;30.81;40.52
31595;BME280;18200;48.726;8.892;2022-08-18T22:19:20;96381.22;;;31.44;39.45
31595;BME280;18200;48.726;8.892;2022-08-18T22:23:35;96378.72;;;31.51;38.77
31595;BME280;18200;48.726;8.892;2022-08-18T22:27:56;96373.50;;;31.00;39.56
31595;BME280;18200;48.726;8.892;2022-08-18T22:32:00;96376.88;;;31.26;39.62
31595;BME280;18200;48.726;8.892;2022-08-18T22:36:01;96373.72;;;30.06;42.35
31595;BME280;18200;48.726;8.892;2022-08-18T22:40:06;96363.66;;;30.45;41.31
31595;BME280;18200;48.726;8.892;2022-08-18T22:44:09;96375.38;;;31.36;39.46
31595;BME280;18200;48.726;8.892;2022-08-18T22:48:09;96374.03;;;31.04;40.15
31595;BME280;18200;48.726;8.892;2022-08-18T22:52:22;96384.44;;;31.20;39.74
31595;BME280;18200;48.726;8.892;2022-08-18T22:56:24;96391.09;;;31.61;38.99
31595;BME280;18200;48.726;8.892;2022-08-18T23:00:25;96385.13;;;31.04;39.85
31595;BME280;18200;48.726;8.892;2022-08-18T23:04:26;96378.03;;;30.92;39.53
31595;BME280;18200;48.726;8.892;2022-08-18T23:08:27;96382.81;;;30.86;39.77
31595;BME280;18200;48.726;8.892;2022-08-18T23:12:27;96377.09;;;30.21;41.03
31595;BME280;18200;48.726;8.892;2022-08-18T23:16:27;96385.34;;;30.10;41.27
31595;BME280;18200;48.726;8.892;2022-08-18T23:20:28;96375.84;;;30.22;40.78
31595;BME280;18200;48.726;8.892;2022-08-18T23:24:29;96381.88;;;31.11;39.50
31595;BME280;18200;48.726;8.892;2022-08-18T23:28:30;96396.44;;;30.95;39.71
31595;BME280;18200;48.726;8.892;2022-08-18T23:32:31;96397.53;;;31.14;39.56
31595;BME280;18200;48.726;8.892;2022-08-18T23:36:33;96385.88;;;30.99;39.70
31595;BME280;18200;48.726;8.892;2022-08-18T23:40:34;96379.16;;;31.22;39.53
31595;BME280;18200;48.726;8.892;2022-08-18T23:44:35;96385.44;;;31.17;39.68
31595;BME280;18200;48.726;8.892;2022-08-18T23:48:35;96395.75;;;31.11;39.78
31595;BME280;18200;48.726;8.892;2022-08-18T23:52:37;96390.28;;;30.80;40.93
31595;BME280;18200;48.726;8.892;2022-08-18T23:56:38;96377.50;;;30.45;41.08
